Time;durP1;ratioP1;P1;durP2;ratioP2;P2;SDS_P1;SDS_P2;PMS_P1;PMS_P2;Temp;Humidity;BMP_temperature;BMP_pressure;BME280_temperature;BME280_humidity;BME280_pressure;Samples;Min_cycle;Max_cycle;Signal;HPM_P1;HPM_P2
2021/04/25 00:01:13;;;;;;;11.40;4.00;;;;;;;8.27;48.34;102090.59;5117774;28;20946;-51
2021/04/25 00:03:40;;;;;;;12.47;3.17;;;;;;;8.10;48.58;102092.81;5116521;27;20963;-50
2021/04/25 00:06:07;;;;;;;13.70;3.77;;;;;;;8.19;48.33;102084.91;5117826;28;20481;-52
2021/04/25 00:08:34;;;;;;;21.10;7.00;;;;;;;8.17;51.13;102087.38;5117194;27;20552;-51
2021/04/25 00:11:01;;;;;;;17.60;5.67;;;;;;;8.01;49.11;102077.66;5117641;28;20448;-49
2021/04/25 00:13:29;;;;;;;11.60;3.13;;;;;;;8.04;48.87;102080.44;5118054;28;20473;-48
2021/04/25 00:15:56;;;;;;;9.83;3.10;;;;;;;7.95;49.21;102080.66;5117819;28;20461;-49
2021/04/25 00:18:22;;;;;;;12.00;4.87;;;;;;;7.84;49.27;102084.09;5118425;28;20455;-49
2021/04/25 00:20:50;;;;;;;15.10;5.13;;;;;;;7.92;49.11;102070.16;5117057;27;20481;-50
2021/04/25 00:23:17;;;;;;;9.07;2.70;;;;;;;7.88;49.06;102067.22;5118075;28;20475;-50
2021/04/25 00:25:43;;;;;;;9.43;3.30;;;;;;;7.82;49.64;102072.81;5117167;27;20474;-49
2021/04/25 00:28:10;;;;;;;20.52;7.20;;;;;;;7.90;50.05;102071.69;5118751;28;20560;-50
2021/04/25 00:30:38;;;;;;;12.00;3.40;;;;;;;7.67;49.47;102068.34;5117105;27;20229;-51
2021/04/25 00:33:04;;;;;;;13.50;4.73;;;;;;;7.85;49.40;102067.91;5117966;28;20496;-48
2021/04/25 00:35:31;;;;;;;15.00;4.80;;;;;;;7.86;49.14;102069.72;5116812;27;20444;-48
2021/04/25 00:37:57;;;;;;;40.70;17.83;;;;;;;8.28;50.11;102069.25;5117972;28;20470;-50
2021/04/25 00:40:24;;;;;;;11.83;2.90;;;;;;;7.86;49.21;102069.72;5116561;27;20948;-49
2021/04/25 00:42:51;;;;;;;10.63;3.50;;;;;;;7.72;49.41;102065.19;5117797;28;20787;-48
2021/04/25 00:45:19;;;;;;;13.30;2.93;;;;;;;7.64;49.58;102055.25;5117163;27;20556;-49
2021/04/25 00:47:47;;;;;;;17.70;5.57;;;;;;;7.70;49.45;102062.53;5118346;28;20452;-49
2021/04/25 00:50:16;;;;;;;63.57;23.40;;;;;;;7.80;49.64;102064.13;5116950;27;20479;-49
2021/04/25 00:52:44;;;;;;;6.47;2.90;;;;;;;7.52;50.15;102073.22;5117868;28;20473;-48
2021/04/25 00:55:12;;;;;;;12.63;3.13;;;;;;;7.30;50.38;102057.84;5116910;27;20943;-49
2021/04/25 00:57:39;;;;;;;13.70;3.40;;;;;;;7.51;49.87;102057.69;5120719;27;20465;-50
2021/04/25 01:00:08;;;;;;;15.17;4.70;;;;;;;7.50;49.91;102063.59;5116952;28;20485;-50
2021/04/25 01:02:35;;;;;;;13.37;3.67;;;;;;;7.61;49.98;102057.59;5117383;28;20485;-49
2021/04/25 01:05:03;;;;;;;15.73;4.80;;;;;;;7.57;50.44;102061.63;5116947;28;20496;-50
2021/04/25 01:07:30;;;;;;;11.27;3.90;;;;;;;7.57;50.12;102055.56;5117880;28;20457;-48
2021/04/25 01:09:57;;;;;;;11.60;4.30;;;;;;;7.56;49.68;102046.09;5116940;28;20477;-48
2021/04/25 01:12:23;;;;;;;40.47;10.80;;;;;;;7.51;50.04;102044.84;5117343;28;20483;-54
2021/04/25 01:14:50;;;;;;;15.10;4.30;;;;;;;7.79;49.30;102044.34;5116786;28;20575;-50
2021/04/25 01:17:17;;;;;;;9.70;3.15;;;;;;;7.35;50.23;102053.97;5117810;28;20431;-51
2021/04/25 01:19:44;;;;;;;15.33;4.93;;;;;;;7.54;50.10;102052.78;5116602;28;20233;-47
2021/04/25 01:22:11;;;;;;;14.20;4.73;;;;;;;7.72;49.25;102048.13;5117317;28;20473;-49
2021/04/25 01:24:38;;;;;;;9.57;3.10;;;;;;;7.81;48.85;102050.47;5118031;27;20479;-49
2021/04/25 01:27:05;;;;;;;11.23;4.07;;;;;;;7.62;49.20;102051.69;5117533;28;20556;-47
2021/04/25 01:29:32;;;;;;;21.50;7.40;;;;;;;7.75;49.15;102050.91;5116805;28;20472;-49
2021/04/25 01:31:58;;;;;;;12.27;3.30;;;;;;;7.49;49.68;102052.41;5116940;28;20482;-48
2021/04/25 01:34:25;;;;;;;11.53;4.40;;;;;;;7.41;50.15;102054.44;5116355;28;20508;-48
2021/04/25 01:36:56;;;;;;;17.17;2.85;;;;;;;7.61;49.31;102046.41;5117432;28;20464;-50
2021/04/25 01:39:23;;;;;;;23.90;7.65;;;;;;;7.33;49.88;102054.63;5116343;27;20246;-48
2021/04/25 01:41:50;;;;;;;11.85;3.67;;;;;;;7.23;50.13;102048.78;5116784;28;20220;-51
2021/04/25 01:44:17;;;;;;;25.35;6.88;;;;;;;7.51;49.49;102048.31;5116280;28;20245;-49
2021/04/25 01:46:43;;;;;;;12.73;3.37;;;;;;;7.41;49.47;102049.31;5116976;28;20214;-47
2021/04/25 01:49:10;;;;;;;24.20;5.83;;;;;;;7.37;50.01;102047.28;5116344;28;20530;-50
2021/04/25 01:51:37;;;;;;;9.43;3.80;;;;;;;7.15;50.40;102048.22;5116773;28;20455;-47
2021/04/25 01:54:04;;;;;;;5.72;2.80;;;;;;;7.11;50.36;102053.88;5115860;28;20254;-48
2021/04/25 01:56:46;;;;;;;8.57;2.93;;;;;;;7.25;49.95;102054.03;5072421;28;20204;-48
2021/04/25 01:59:12;;;;;;;17.47;5.07;;;;;;;7.31;50.19;102051.94;5073343;28;20486;-49
2021/04/25 02:01:39;;;;;;;8.47;3.00;;;;;;;7.20;50.32;102052.78;5073758;28;20475;-49
2021/04/25 02:04:06;;;;;;;8.93;3.58;;;;;;;7.19;50.49;102046.78;5073027;28;20492;-49
2021/04/25 02:06:33;;;;;;;39.92;14.27;;;;;;;7.34;51.05;102047.03;5073983;28;20297;-48
2021/04/25 02:08:59;;;;;;;11.45;3.60;;;;;;;7.23;49.94;102042.78;5072998;28;20658;-49
2021/04/25 02:11:26;;;;;;;9.95;3.03;;;;;;;7.34;49.94;102041.00;5073925;28;20596;-50
2021/04/25 02:13:53;;;;;;;10.90;4.00;;;;;;;7.37;50.05;102037.00;5073022;28;20557;-50
2021/04/25 02:16:20;;;;;;;14.32;3.53;;;;;;;6.98;50.64;102040.91;5073966;28;20460;-48
2021/04/25 02:18:46;;;;;;;9.60;3.05;;;;;;;7.07;50.65;102041.59;5072952;28;20206;-49
2021/04/25 02:21:13;;;;;;;17.02;3.80;;;;;;;6.97;50.61;102034.84;5073128;28;20221;-49
2021/04/25 02:23:40;;;;;;;5.72;2.90;;;;;;;7.12;50.15;102040.28;5072589;28;20581;-48
2021/04/25 02:26:06;;;;;;;13.38;3.83;;;;;;;7.24;51.53;102044.56;5073331;28;20639;-51
2021/04/25 02:28:33;;;;;;;10.45;3.50;;;;;;;7.27;49.67;102032.84;5093520;28;20231;-48
2021/04/25 02:31:00;;;;;;;18.02;4.15;;;;;;;7.54;48.93;102034.81;5095621;28;20319;-48
2021/04/25 02:33:27;;;;;;;11.70;3.93;;;;;;;7.35;50.01;102036.00;5095738;28;20216;-47
2021/04/25 02:35:53;;;;;;;51.58;16.77;;;;;;;7.61;50.63;102029.34;5095426;28;20468;-48
2021/04/25 02:38:20;;;;;;;11.57;3.63;;;;;;;7.03;50.33;102030.19;5095809;28;20205;-47
2021/04/25 02:40:47;;;;;;;18.73;6.63;;;;;;;7.11;50.74;102028.22;5094398;28;20236;-49
2021/04/25 02:43:13;;;;;;;8.70;3.22;;;;;;;7.01;50.38;102024.06;5095384;28;20510;-52
2021/04/25 02:45:40;;;;;;;7.15;2.97;;;;;;;6.82;50.79;102015.72;5094896;28;20246;-50
2021/04/25 02:48:09;;;;;;;28.63;10.50;;;;;;;6.87;51.03;102020.44;5095667;28;20200;-49
2021/04/25 02:50:37;;;;;;;15.38;4.15;;;;;;;7.00;50.67;102019.72;5094335;28;20612;-50
2021/04/25 02:53:05;;;;;;;14.00;4.97;;;;;;;7.04;50.70;102020.84;5095142;28;20231;-50
2021/04/25 02:55:31;;;;;;;23.25;8.25;;;;;;;7.39;50.28;102020.03;5098324;28;20231;-49
2021/04/25 02:57:58;;;;;;;11.52;3.75;;;;;;;7.33;49.56;102013.56;5117277;27;20201;-53
2021/04/25 03:00:26;;;;;;;12.65;4.68;;;;;;;7.19;49.84;102010.84;5114777;28;20643;-49
2021/04/25 03:02:54;;;;;;;16.23;4.72;;;;;;;7.10;50.22;102016.16;5115459;28;20239;-51
2021/04/25 03:05:21;;;;;;;45.38;16.85;;;;;;;7.63;50.30;102014.06;5114838;28;20326;-52
2021/04/25 03:07:49;;;;;;;9.57;4.00;;;;;;;7.55;48.95;102021.19;5116057;28;20548;-49
2021/04/25 03:10:16;;;;;;;24.52;8.82;;;;;;;7.60;49.12;102014.72;5114609;28;20259;-49
2021/04/25 03:12:45;;;;;;;23.02;5.60;;;;;;;7.42;49.25;102015.13;5115377;28;20222;-52
2021/04/25 03:15:13;;;;;;;7.20;3.15;;;;;;;7.74;48.06;102022.56;5115150;28;20231;-53
2021/04/25 03:17:40;;;;;;;8.70;3.42;;;;;;;7.57;48.72;102017.03;5115798;28;20206;-49
2021/04/25 03:20:09;;;;;;;18.77;7.63;;;;;;;7.77;48.68;102012.47;5114664;28;20304;-48
2021/04/25 03:22:36;;;;;;;15.83;5.20;;;;;;;7.61;49.37;102019.06;5118070;28;20505;-47
2021/04/25 03:25:04;;;;;;;15.83;5.00;;;;;;;7.65;49.07;102015.94;5114786;28;20506;-48
2021/04/25 03:27:30;;;;;;;7.47;3.13;;;;;;;7.20;49.76;102012.63;5115933;28;20453;-48
2021/04/25 03:29:57;;;;;;;15.20;3.83;;;;;;;6.95;50.85;102009.84;5114833;28;20243;-48
2021/04/25 03:32:24;;;;;;;7.80;3.50;;;;;;;6.95;50.55;102014.97;5118400;28;20469;-49
2021/04/25 03:34:51;;;;;;;19.53;5.10;;;;;;;6.87;51.27;102012.72;5118576;27;20241;-49
2021/04/25 03:37:18;;;;;;;19.15;5.25;;;;;;;7.07;50.34;102025.31;5119866;28;20547;-48
2021/04/25 03:39:45;;;;;;;35.75;4.65;;;;;;;6.93;50.69;102017.47;5118962;28;20548;-48
2021/04/25 03:42:12;;;;;;;13.85;4.82;;;;;;;6.96;50.85;102020.25;5119236;28;20228;-48
2021/04/25 03:44:38;;;;;;;12.00;5.13;;;;;;;7.20;52.61;102020.31;5118570;28;20238;-48
2021/04/25 03:47:05;;;;;;;11.00;3.95;;;;;;;7.23;50.63;102025.69;5119424;28;20203;-49
2021/04/25 03:49:32;;;;;;;15.77;3.80;;;;;;;7.09;51.50;102028.88;5118453;28;20243;-48
2021/04/25 03:51:58;;;;;;;8.52;2.90;;;;;;;7.04;50.78;102031.09;5119210;27;20203;-48
2021/04/25 03:54:25;;;;;;;6.23;3.00;;;;;;;6.98;50.90;102023.81;5118281;28;20732;-47
2021/04/25 03:56:52;;;;;;;15.55;4.78;;;;;;;6.76;51.39;102021.25;5119457;28;20459;-47
2021/04/25 03:59:19;;;;;;;16.65;5.07;;;;;;;6.66;51.76;102021.34;5118686;28;20318;-48
2021/04/25 04:01:46;;;;;;;10.80;3.50;;;;;;;7.07;50.46;102026.19;5118859;28;20314;-51
2021/04/25 04:04:12;;;;;;;7.80;3.50;;;;;;;6.99;51.66;102028.16;5118175;28;20289;-49
2021/04/25 04:06:39;;;;;;;11.65;3.10;;;;;;;6.62;51.96;102031.34;5119029;28;20207;-48
2021/04/25 04:09:06;;;;;;;9.45;3.10;;;;;;;6.63;51.56;102027.13;5117977;28;20236;-49
2021/04/25 04:11:32;;;;;;;11.50;3.10;;;;;;;6.78;51.42;102026.50;5118977;28;20192;-50
2021/04/25 04:14:00;;;;;;;12.40;3.00;;;;;;;6.74;51.40;102027.94;5118077;28;20242;-49
2021/04/25 04:16:26;;;;;;;11.32;3.60;;;;;;;6.93;51.02;102025.16;5118909;28;20208;-50
2021/04/25 04:18:53;;;;;;;13.38;3.72;;;;;;;6.68;51.75;102024.91;5117843;28;20232;-48
2021/04/25 04:21:20;;;;;;;10.40;3.78;;;;;;;6.95;51.92;102033.84;5118678;28;20306;-48
2021/04/25 04:23:47;;;;;;;18.33;3.67;;;;;;;6.70;52.01;102033.59;5117674;28;20314;-49
2021/04/25 04:26:15;;;;;;;17.60;6.75;;;;;;;6.73;52.17;102036.44;5118776;28;20206;-50
2021/04/25 04:28:42;;;;;;;7.97;2.67;;;;;;;6.86;51.96;102039.16;5117956;28;20440;-50
2021/04/25 04:31:09;;;;;;;41.92;13.95;;;;;;;6.97;51.30;102041.69;5118604;28;20191;-49
2021/04/25 04:33:36;;;;;;;9.30;2.88;;;;;;;7.15;51.23;102034.47;5117566;28;20215;-47
2021/04/25 04:36:03;;;;;;;13.15;4.38;;;;;;;7.11;50.56;102043.63;5118441;28;20522;-49
2021/04/25 04:38:30;;;;;;;11.38;3.60;;;;;;;7.15;50.81;102045.66;5117281;28;20603;-51
2021/04/25 04:40:57;;;;;;;20.83;7.20;;;;;;;7.16;51.65;102051.66;5118276;28;20547;-50
2021/04/25 04:43:24;;;;;;;12.17;4.77;;;;;;;7.70;51.03;102053.13;5117484;28;20216;-47
2021/04/25 04:45:52;;;;;;;12.38;4.45;;;;;;;7.27;50.30;102049.91;5117512;28;20478;-48
2021/04/25 04:48:19;;;;;;;22.98;6.45;;;;;;;7.49;50.09;102046.41;5118516;28;20296;-51
2021/04/25 04:50:46;;;;;;;27.48;9.75;;;;;;;7.48;50.72;102055.78;5117002;28;20268;-47
2021/04/25 04:53:13;;;;;;;13.70;3.90;;;;;;;7.49;52.76;102054.13;5117889;28;20224;-48
2021/04/25 04:55:39;;;;;;;38.75;17.08;;;;;;;8.00;52.74;102056.97;5116871;28;20235;-51
2021/04/25 04:58:06;;;;;;;21.33;6.87;;;;;;;7.61;52.12;102054.13;5120998;27;20286;-50
2021/04/25 05:00:33;;;;;;;18.00;5.83;;;;;;;7.32;50.30;102061.44;5117277;28;20483;-47
2021/04/25 05:02:59;;;;;;;17.60;6.90;;;;;;;7.06;50.77;102060.34;5117612;28;20571;-48
2021/04/25 05:05:27;;;;;;;13.13;4.93;;;;;;;7.18;51.03;102050.09;5116924;28;20557;-48
2021/04/25 05:07:58;;;;;;;17.20;5.27;;;;;;;7.58;50.21;102049.66;5117917;28;20508;-49
2021/04/25 05:10:25;;;;;;;26.97;8.40;;;;;;;7.70;50.71;102053.13;5116634;28;20519;-50
2021/04/25 05:12:52;;;;;;;10.30;3.23;;;;;;;7.62;49.94;102058.47;5117609;28;20480;-48
2021/04/25 05:15:18;;;;;;;23.20;7.00;;;;;;;7.56;50.39;102061.50;5116988;28;20563;-49
2021/04/25 05:17:45;;;;;;;10.20;3.97;;;;;;;7.45;50.36;102067.50;5117862;28;20432;-49
2021/04/25 05:20:13;;;;;;;10.77;3.90;;;;;;;7.42;50.62;102065.59;5116694;28;20500;-49
2021/04/25 05:22:41;;;;;;;11.00;4.47;;;;;;;7.64;52.35;102068.09;5116969;27;20863;-49
2021/04/25 05:25:08;;;;;;;20.17;7.33;;;;;;;7.81;50.18;102068.47;5116508;28;20483;-52
2021/04/25 05:27:35;;;;;;;9.20;3.10;;;;;;;8.02;50.00;102071.72;5120111;27;20460;-47
2021/04/25 05:30:02;;;;;;;14.13;5.10;;;;;;;8.05;51.17;102076.19;5116876;28;20550;-48
2021/04/25 05:32:29;;;;;;;10.73;3.03;;;;;;;8.22;49.94;102075.72;5116935;28;20476;-48
2021/04/25 05:34:56;;;;;;;16.20;5.13;;;;;;;7.79;50.26;102076.06;5116106;28;20526;-48
2021/04/25 05:37:22;;;;;;;11.13;4.60;;;;;;;8.18;49.29;102075.41;5117285;28;20438;-48
2021/04/25 05:39:50;;;;;;;11.90;4.57;;;;;;;8.47;48.48;102072.34;5116432;28;20502;-49
2021/04/25 05:42:16;;;;;;;20.60;7.57;;;;;;;8.66;48.37;102072.81;5117075;28;20492;-50
2021/04/25 05:44:43;;;;;;;22.70;8.47;;;;;;;8.28;48.77;102090.72;5116534;27;20497;-49
2021/04/25 05:47:09;;;;;;;6.80;2.70;;;;;;;8.60;48.28;102084.44;5117225;28;20457;-48
2021/04/25 05:49:36;;;;;;;11.20;4.50;;;;;;;8.47;48.01;102087.78;5116276;28;20912;-49
2021/04/25 05:52:03;;;;;;;13.30;4.83;;;;;;;8.44;48.82;102097.88;5116600;28;20487;-49
2021/04/25 05:54:29;;;;;;;12.20;3.80;;;;;;;8.37;48.30;102096.50;5114874;28;20475;-49
2021/04/25 05:56:57;;;;;;;33.80;13.20;;;;;;;8.91;48.03;102090.84;5116874;28;20464;-48
2021/04/25 05:59:23;;;;;;;12.47;3.83;;;;;;;8.45;48.54;102101.31;5116402;28;20484;-50
2021/04/25 06:01:50;;;;;;;15.03;5.37;;;;;;;8.70;47.84;102100.53;5116207;28;20481;-48
2021/04/25 06:04:17;;;;;;;22.20;5.83;;;;;;;8.90;47.78;102101.94;5115979;28;20477;-49
2021/04/25 06:06:43;;;;;;;16.53;4.90;;;;;;;9.09;46.77;102108.38;5116526;28;20464;-49
2021/04/25 06:09:10;;;;;;;12.20;4.63;;;;;;;8.88;47.26;102101.81;5115857;28;20484;-50
2021/04/25 06:11:37;;;;;;;19.13;8.90;;;;;;;8.70;48.00;102105.69;5116468;28;20456;-47
2021/04/25 06:14:05;;;;;;;11.27;5.23;;;;;;;9.54;45.83;102107.16;5116003;28;20480;-48
2021/04/25 06:16:32;;;;;;;12.33;5.67;;;;;;;9.64;46.11;102107.78;5116380;28;20435;-51
2021/04/25 06:18:58;;;;;;;15.47;5.60;;;;;;;9.23;46.21;102107.63;5115479;28;20496;-48
2021/04/25 06:21:26;;;;;;;14.77;5.10;;;;;;;9.73;45.42;102114.47;5116634;28;20939;-49
2021/04/25 06:23:52;;;;;;;15.03;5.13;;;;;;;9.82;44.94;102114.19;5115236;28;20894;-49
2021/04/25 06:26:20;;;;;;;12.07;6.00;;;;;;;9.70;47.29;102116.81;5116571;28;20424;-50
2021/04/25 06:28:46;;;;;;;24.73;10.33;;;;;;;9.97;45.80;102113.41;5115681;28;20428;-49
2021/04/25 06:31:14;;;;;;;15.57;5.93;;;;;;;9.89;44.84;102115.47;5116180;28;20527;-52
2021/04/25 06:33:41;;;;;;;13.67;5.53;;;;;;;10.00;44.65;102121.31;5115230;28;20767;-48
2021/04/25 06:36:08;;;;;;;15.10;4.80;;;;;;;10.29;44.13;102117.19;5116100;28;20967;-51
2021/04/25 06:38:34;;;;;;;16.77;7.07;;;;;;;10.88;43.89;102120.03;5115456;28;20453;-53
2021/04/25 06:41:01;;;;;;;12.67;4.20;;;;;;;11.04;42.57;102122.75;5115956;28;20551;-51
2021/04/25 06:43:27;;;;;;;10.10;3.80;;;;;;;10.93;41.27;102127.25;5115368;28;20462;-56
2021/04/25 06:45:54;;;;;;;16.80;6.37;;;;;;;10.44;42.83;102125.06;5116014;28;20455;-49
2021/04/25 06:48:21;;;;;;;15.47;4.67;;;;;;;11.01;42.44;102126.84;5118564;28;20510;-49
2021/04/25 06:50:48;;;;;;;14.53;5.83;;;;;;;10.69;42.76;102128.28;5114989;28;20525;-49
2021/04/25 06:53:15;;;;;;;16.50;3.50;;;;;;;11.07;41.38;102122.03;5115870;28;20479;-48
2021/04/25 06:55:42;;;;;;;7.60;2.70;;;;;;;10.82;40.94;102130.84;5115006;28;20516;-47
2021/04/25 06:58:08;;;;;;;6.87;3.00;;;;;;;10.90;43.29;102137.41;5116127;28;20453;-48
2021/04/25 07:00:36;;;;;;;14.67;5.20;;;;;;;10.92;40.39;102137.50;5115027;28;20740;-49
2021/04/25 07:03:04;;;;;;;11.20;5.13;;;;;;;11.41;41.57;102134.44;5115683;28;20779;-49
2021/04/25 07:05:32;;;;;;;19.63;8.23;;;;;;;11.71;41.12;102137.09;5115494;28;20516;-53
2021/04/25 07:07:58;;;;;;;6.00;2.40;;;;;;;11.14;39.06;102133.66;5122929;27;20759;-48
2021/04/25 07:10:25;;;;;;;8.07;1.97;;;;;;;11.17;39.52;102136.41;5121611;27;20486;-51
2021/04/25 07:12:52;;;;;;;14.90;4.87;;;;;;;10.80;41.36;102140.19;5122323;27;20476;-50
2021/04/25 07:15:19;;;;;;;20.77;8.60;;;;;;;11.64;39.20;102132.34;5121984;27;20494;-48
2021/04/25 07:17:45;;;;;;;5.43;1.80;;;;;;;11.44;38.73;102137.22;5122908;27;20434;-50
2021/04/25 07:20:13;;;;;;;5.90;2.37;;;;;;;12.02;38.19;102146.63;5121675;27;20447;-49
2021/04/25 07:22:41;;;;;;;8.37;3.37;;;;;;;11.50;38.95;102141.88;5122026;27;20496;-50
2021/04/25 07:25:09;;;;;;;9.00;2.50;;;;;;;11.12;39.68;102151.63;5121627;27;20443;-49
2021/04/25 07:27:36;;;;;;;4.90;1.50;;;;;;;11.59;38.93;102144.13;5125149;27;20464;-48
2021/04/25 07:30:04;;;;;;;5.33;1.73;;;;;;;11.53;39.03;102148.94;5121610;27;20447;-50
2021/04/25 07:32:31;;;;;;;8.77;4.00;;;;;;;12.10;40.07;102151.41;5122357;27;20535;-49
2021/04/25 07:34:58;;;;;;;7.50;3.40;;;;;;;11.98;38.40;102149.84;5121614;27;20535;-48
2021/04/25 07:37:25;;;;;;;5.47;2.23;;;;;;;11.62;39.00;102149.47;5122567;27;20434;-49
2021/04/25 07:39:52;;;;;;;5.17;1.60;;;;;;;12.22;38.62;102156.38;5121530;27;20845;-53
2021/04/25 07:42:18;;;;;;;7.83;1.90;;;;;;;13.02;36.86;102157.34;5121961;27;20487;-51
2021/04/25 07:44:45;;;;;;;5.70;1.27;;;;;;;12.52;36.02;102153.75;5121554;27;20507;-48
2021/04/25 07:47:12;;;;;;;10.53;4.53;;;;;;;12.37;37.29;102154.66;5122532;27;20463;-49
2021/04/25 07:49:39;;;;;;;4.47;1.40;;;;;;;11.92;39.27;102159.84;5121388;27;20522;-48
2021/04/25 07:52:06;;;;;;;3.67;1.03;;;;;;;11.66;37.20;102153.13;5121924;27;20766;-49
2021/04/25 07:54:33;;;;;;;5.20;1.30;;;;;;;11.99;36.54;102151.63;5121111;27;20971;-51
2021/04/25 07:57:00;;;;;;;4.70;1.60;;;;;;;12.84;35.51;102157.25;5122156;27;20458;-51
2021/04/25 07:59:27;;;;;;;9.60;3.87;;;;;;;13.21;36.10;102153.13;5121783;27;20538;-52
2021/04/25 08:01:53;;;;;;;10.57;2.43;;;;;;;12.36;36.44;102158.06;5121631;27;20488;-52
2021/04/25 08:04:20;;;;;;;7.40;2.40;;;;;;;12.90;35.05;102156.66;5121155;27;20504;-52
2021/04/25 08:06:47;;;;;;;13.03;5.13;;;;;;;12.89;35.82;102160.97;5122192;27;20545;-49
2021/04/25 08:09:13;;;;;;;21.03;7.70;;;;;;;12.90;35.29;102157.56;5121175;27;20512;-50
2021/04/25 08:11:40;;;;;;;5.30;1.80;;;;;;;12.29;34.55;102163.69;5121833;27;20496;-49
2021/04/25 08:14:07;;;;;;;6.50;2.10;;;;;;;12.29;34.95;102169.75;5121405;27;20480;-50
2021/04/25 08:16:35;;;;;;;8.63;3.10;;;;;;;13.11;33.54;102167.31;5122144;27;20761;-51
2021/04/25 08:19:02;;;;;;;6.07;2.10;;;;;;;12.94;32.56;102163.81;5117126;27;20917;-53
2021/04/25 08:21:30;;;;;;;4.70;1.70;;;;;;;12.87;32.97;102161.69;5118735;28;20481;-50
2021/04/25 08:23:57;;;;;;;9.40;3.93;;;;;;;12.96;31.94;102162.19;5117516;27;20473;-48
2021/04/25 08:26:24;;;;;;;3.80;1.07;;;;;;;12.71;31.80;102165.13;5118920;28;20492;-50
2021/04/25 08:28:51;;;;;;;5.83;1.70;;;;;;;12.80;31.39;102166.53;5117989;28;20451;-49
2021/04/25 08:31:19;;;;;;;9.90;3.90;;;;;;;12.82;31.65;102157.16;5118509;28;20455;-50
2021/04/25 08:33:46;;;;;;;4.57;1.00;;;;;;;13.24;30.95;102163.69;5117626;28;20557;-50
2021/04/25 08:36:14;;;;;;;5.50;1.20;;;;;;;13.72;30.13;102158.41;5118630;28;20523;-48
2021/04/25 08:38:41;;;;;;;7.53;2.83;;;;;;;13.64;29.63;102165.78;5117477;28;20874;-53
2021/04/25 08:41:09;;;;;;;12.30;2.20;;;;;;;13.78;30.07;102163.00;5118420;27;20447;-49
2021/04/25 08:43:36;;;;;;;3.90;1.30;;;;;;;12.98;29.57;102160.59;5117767;28;20780;-49
2021/04/25 08:46:03;;;;;;;5.30;2.00;;;;;;;12.67;28.95;102170.13;5118251;28;20795;-49
2021/04/25 08:48:32;;;;;;;7.60;1.90;;;;;;;12.99;29.89;102171.81;5117250;28;20981;-51
2021/04/25 08:50:59;;;;;;;4.10;1.00;;;;;;;13.35;28.85;102167.72;5117839;28;20487;-49
2021/04/25 08:53:25;;;;;;;3.60;0.93;;;;;;;13.54;28.78;102168.72;5117677;28;20480;-49
2021/04/25 08:55:52;;;;;;;3.67;1.07;;;;;;;13.41;29.88;102163.66;5120088;27;20942;-49
2021/04/25 08:58:21;;;;;;;4.70;0.90;;;;;;;13.62;28.11;102172.63;5118269;28;20462;-52
2021/04/25 09:00:48;;;;;;;4.70;1.20;;;;;;;13.48;28.57;102171.88;5117063;28;20468;-48
2021/04/25 09:03:15;;;;;;;3.87;0.97;;;;;;;13.86;27.65;102176.38;5117634;28;20579;-50
2021/04/25 09:05:44;;;;;;;6.43;1.97;;;;;;;14.61;26.32;102162.72;5116987;28;20486;-50
2021/04/25 09:08:10;;;;;;;3.00;0.70;;;;;;;14.19;25.38;102158.13;5118309;28;20456;-48
2021/04/25 09:10:39;;;;;;;3.20;1.00;;;;;;;13.94;26.18;102167.28;5116751;28;20548;-51
2021/04/25 09:13:16;;;;;;;6.00;2.43;;;;;;;14.37;25.99;102155.53;5117460;27;20930;-53
2021/04/25 09:15:43;;;;;;;4.33;0.70;;;;;;;15.04;25.45;102155.19;5117000;28;20927;-49
2021/04/25 09:18:10;;;;;;;6.90;2.30;;;;;;;15.07;26.18;102156.19;5117622;28;20448;-49
2021/04/25 09:20:40;;;;;;;3.60;1.20;;;;;;;15.16;25.23;102168.72;5116373;28;20473;-54
2021/04/25 09:23:09;;;;;;;3.00;0.80;;;;;;;14.61;26.01;102164.44;5117322;28;20495;-50
2021/04/25 09:25:36;;;;;;;3.80;1.40;;;;;;;14.21;25.91;102166.88;5119054;27;20502;-47
2021/04/25 09:41:52;;;;;;;7.37;2.07;;;;;;;13.56;25.18;102179.16;5133266;27;20370;-48
2021/04/25 09:44:33;;;;;;;6.00;1.10;;;;;;;13.25;23.90;102170.66;5125159;27;20535;-48
2021/04/25 09:47:02;;;;;;;5.17;1.70;;;;;;;13.81;23.76;102170.97;5072293;28;20846;-50
2021/04/25 09:49:40;;;;;;;4.13;0.80;;;;;;;13.95;23.70;102181.16;5071541;28;20475;-52
2021/04/25 09:52:08;;;;;;;6.23;1.00;;;;;;;14.66;23.88;102169.00;5072095;28;20470;-51
2021/04/25 09:54:35;;;;;;;7.67;3.23;;;;;;;14.76;23.78;102172.97;5071051;28;20785;-53
2021/04/25 09:57:03;;;;;;;7.03;2.73;;;;;;;14.13;24.35;102171.69;5072302;28;20454;-51
2021/04/25 09:59:30;;;;;;;9.40;4.27;;;;;;;14.15;24.18;102174.38;5070959;28;20466;-52
2021/04/25 10:02:06;;;;;;;2.97;0.80;;;;;;;13.59;24.97;102171.56;5070868;28;20479;-49
2021/04/25 10:04:35;;;;;;;4.33;1.43;;;;;;;13.44;24.90;102177.69;5068894;28;20529;-49
2021/04/25 10:07:03;;;;;;;4.20;0.70;;;;;;;13.21;25.06;102168.69;5065888;28;20458;-50
2021/04/25 10:09:30;;;;;;;5.37;1.30;;;;;;;13.27;25.29;102179.38;5070958;28;20488;-47
2021/04/25 10:11:59;;;;;;;4.10;1.17;;;;;;;13.47;23.33;102166.63;5071232;28;20476;-50
2021/04/25 10:14:27;;;;;;;3.37;0.80;;;;;;;14.61;23.43;102167.03;5068980;28;20474;-48
2021/04/25 10:16:54;;;;;;;8.13;1.97;;;;;;;15.62;21.94;102172.50;5051893;28;20465;-49
2021/04/25 10:19:21;;;;;;;3.73;0.80;;;;;;;15.24;22.35;102169.97;5050952;28;20897;-49
2021/04/25 10:21:48;;;;;;;3.87;1.17;;;;;;;15.75;21.61;102168.69;5051376;28;20467;-50
2021/04/25 10:24:18;;;;;;;3.83;0.57;;;;;;;15.56;21.72;102166.13;5050833;28;20459;-48
2021/04/25 10:26:59;;;;;;;3.10;0.87;;;;;;;14.94;22.77;102165.16;5051571;28;20466;-48
2021/04/25 10:29:32;;;;;;;3.57;0.90;;;;;;;14.08;22.82;102170.56;5066174;28;20522;-47
2021/04/25 10:32:00;;;;;;;7.67;0.97;;;;;;;14.01;23.41;102174.53;5071104;28;20482;-48
2021/04/25 10:34:27;;;;;;;3.63;0.87;;;;;;;13.43;23.35;102172.44;5069866;28;20474;-48
2021/04/25 10:36:59;;;;;;;7.13;1.00;;;;;;;13.61;23.28;102164.75;5071152;28;20465;-49
2021/04/25 10:39:41;;;;;;;26.77;10.30;;;;;;;14.17;22.88;102167.53;5070656;28;20806;-49
2021/04/25 10:42:32;;;;;;;4.07;1.00;;;;;;;14.16;22.96;102171.81;5081872;28;20572;-48
2021/04/25 10:48:23;;;;;;;5.07;1.90;;;;;;;15.09;22.02;102166.69;5076259;28;20552;-49
2021/04/25 10:51:12;;;;;;;3.07;0.50;;;;;;;15.30;21.66;102165.84;5076106;28;20503;-48
2021/04/25 10:53:41;;;;;;;4.33;0.93;;;;;;;15.65;21.83;102167.41;5078130;28;20573;-52
2021/04/25 10:56:29;;;;;;;22.03;9.20;;;;;;;15.87;19.83;102164.84;5076991;28;20482;-50
2021/04/25 10:59:30;;;;;;;3.80;0.80;;;;;;;15.60;20.36;102162.84;5077846;28;20549;-50
2021/04/25 11:02:00;;;;;;;6.00;2.17;;;;;;;15.52;20.15;102158.19;5117358;28;20553;-51
2021/04/25 11:04:57;;;;;;;10.03;3.20;;;;;;;15.39;19.98;102158.47;5117250;28;20475;-49
2021/04/25 11:07:49;;;;;;;2.60;0.60;;;;;;;15.25;21.22;102153.56;5118451;28;20543;-50
2021/04/25 11:10:22;;;;;;;3.87;0.67;;;;;;;14.98;20.62;102156.66;5101626;28;20826;-54
2021/04/25 11:12:49;;;;;;;4.73;1.30;;;;;;;15.45;21.39;102156.16;5109759;28;20556;-48
2021/04/25 11:15:50;;;;;;;8.33;0.83;;;;;;;16.19;20.68;102155.81;5096969;28;20481;-50
2021/04/25 11:18:47;;;;;;;2.73;0.63;;;;;;;15.71;20.17;102151.19;5097577;28;20507;-49
2021/04/25 11:21:49;;;;;;;9.87;3.10;;;;;;;16.22;19.79;102160.25;5096020;28;20473;-49
2021/04/25 11:24:30;;;;;;;6.60;2.10;;;;;;;16.28;19.43;102155.28;5096438;28;20552;-49
2021/04/25 11:26:59;;;;;;;6.47;2.33;;;;;;;16.12;20.43;102156.38;5097487;28;20493;-52
2021/04/25 11:29:52;;;;;;;7.43;3.10;;;;;;;16.09;19.44;102157.97;5096241;28;20841;-48
2021/04/25 11:32:32;;;;;;;6.50;1.10;;;;;;;16.15;19.57;102156.50;5115851;28;20483;-49
2021/04/25 11:35:14;;;;;;;7.00;2.00;;;;;;;16.09;20.32;102147.56;5116872;28;20556;-52
2021/04/25 11:37:42;;;;;;;6.53;1.83;;;;;;;15.50;21.28;102159.81;5116798;28;20456;-48
2021/04/25 11:40:11;;;;;;;7.57;0.90;;;;;;;14.72;20.72;102163.25;5115758;28;20483;-49
2021/04/25 11:42:46;;;;;;;3.90;0.90;;;;;;;14.44;22.58;102159.31;5117536;28;20476;-52
2021/04/25 11:45:18;;;;;;;5.10;1.23;;;;;;;15.83;20.82;102157.75;5095782;28;20564;-50
2021/04/25 11:47:46;;;;;;;4.73;1.20;;;;;;;15.96;21.13;102157.47;5097171;28;20457;-51